^^
Saratoga-Weather Station Historical Data
Daily Summary for January 13, 2022 Units:  Both    English   Metric
Daily Weekly Monthly Yearly Custom
  High: Low: Average:
Temperature: 34.3 °F /  1.3 °C 30 °F /  -1.1 °C 32.4 °F /  0.2 °C
Dew Point: 33.1 °F /  0.6 °C 28.9 °F /  -1.7 °C 31.1 °F /  -0.5 °C
Humidity: 97% 94% 96%
Wind Speed: 4mph /  6.4km/h - 0.4mph /  0.6km/h
Wind Gust: 5mph /  8km/h - -
Wind- - SSE
Pressure: 30.8 in /  1041.7 hPa 30.7 in /  1038.3 hPa -
Precipitation: 0 in /  0.0 mm    
Historical Graphs
 
 
Tabular Data for January 13, 2022
Time Temperature Dew Point Pressure Wind Wind Speed Wind Gust Humidity Rainfall Rate (Hourly) solar
00:01 32.7 °F /  0.4 °C 31.1 °F /  -0.5 °C 30.7in /  1041.0hPa Calm   1mph /  1.6km/h 94% 0in /  0.0mm 0 W/m2
00:06 32.7 °F /  0.4 °C 31.1 °F /  -0.5 °C 30.7in /  1041.0hPa Calm   3mph /  4.8km/h 94% 0in /  0.0mm 0 W/m2
00:11 32.7 °F /  0.4 °C 31.1 °F /  -0.5 °C 30.7in /  1041.0hPa NW 0.9mph /  1.4km/h 2mph /  3.2km/h 94% 0in /  0.0mm 0 W/m2
00:16 32.7 °F /  0.4 °C 31.1 °F /  -0.5 °C 30.7in /  1041.0hPa Calm   4mph /  6.4km/h 94% 0in /  0.0mm 0 W/m2
00:21 32.7 °F /  0.4 °C 31.1 °F /  -0.5 °C 30.7in /  1041.0hPa Calm   2mph /  3.2km/h 94% 0in /  0.0mm 0 W/m2
00:26 32.7 °F /  0.4 °C 31.1 °F /  -0.5 °C 30.7in /  1041.0hPa Calm   4mph /  6.4km/h 94% 0in /  0.0mm 0 W/m2
00:31 32.7 °F /  0.4 °C 31.5 °F /  -0.3 °C 30.7in /  1040.6hPa NNW 0.9mph /  1.4km/h 2mph /  3.2km/h 95% 0in /  0.0mm 0 W/m2
00:36 32.7 °F /  0.4 °C 31.5 °F /  -0.3 °C 30.7in /  1041.0hPa NE 0.9mph /  1.4km/h 1mph /  1.6km/h 95% 0in /  0.0mm 0 W/m2
00:41 32.7 °F /  0.4 °C 31.5 °F /  -0.3 °C 30.7in /  1040.6hPa NNW 0.9mph /  1.4km/h 3mph /  4.8km/h 95% 0in /  0.0mm 0 W/m2
00:46 32.7 °F /  0.4 °C 31.5 °F /  -0.3 °C 30.7in /  1041.0hPa North 0.9mph /  1.4km/h 1mph /  1.6km/h 95% 0in /  0.0mm 0 W/m2
00:51 32.7 °F /  0.4 °C 31.5 °F /  -0.3 °C 30.7in /  1041.0hPa Calm   3mph /  4.8km/h 95% 0in /  0.0mm 0 W/m2
00:56 32.7 °F /  0.4 °C 31.5 °F /  -0.3 °C 30.7in /  1041.0hPa Calm   3mph /  4.8km/h 95% 0in /  0.0mm 0 W/m2
01:01 32.7 °F /  0.4 °C 31.5 °F /  -0.3 °C 30.7in /  1041.0hPa Calm   1mph /  1.6km/h 95% 0in /  0.0mm 0 W/m2
01:06 32.5 °F /  0.3 °C 31.3 °F /  -0.4 °C 30.7in /  1041.0hPa Calm   1mph /  1.6km/h 95% 0in /  0.0mm 0 W/m2
01:11 32.5 °F /  0.3 °C 31.3 °F /  -0.4 °C 30.7in /  1041.0hPa NE 2mph /  3.2km/h 3mph /  4.8km/h 95% 0in /  0.0mm 0 W/m2
01:16 32.5 °F /  0.3 °C 31.3 °F /  -0.4 °C 30.8in /  1041.3hPa Calm     95% 0in /  0.0mm 0 W/m2
01:21 32.5 °F /  0.3 °C 31.3 °F /  -0.4 °C 30.7in /  1041.0hPa Calm   1mph /  1.6km/h 95% 0in /  0.0mm 0 W/m2
01:26 32.5 °F /  0.3 °C 31.3 °F /  -0.4 °C 30.7in /  1041.0hPa WNW 0.9mph /  1.4km/h 2mph /  3.2km/h 95% 0in /  0.0mm 0 W/m2
01:31 32.5 °F /  0.3 °C 31.3 °F /  -0.4 °C 30.7in /  1041.0hPa Calm     95% 0in /  0.0mm 0 W/m2
01:36 32.5 °F /  0.3 °C 31.3 °F /  -0.4 °C 30.7in /  1041.0hPa Calm   1mph /  1.6km/h 95% 0in /  0.0mm 0 W/m2
01:41 32.4 °F /  0.2 °C 31.1 °F /  -0.5 °C 30.7in /  1041.0hPa Calm     95% 0in /  0.0mm 0 W/m2
01:46 32.5 °F /  0.3 °C 31.3 °F /  -0.4 °C 30.7in /  1041.0hPa WNW 0.9mph /  1.4km/h 2mph /  3.2km/h 95% 0in /  0.0mm 0 W/m2
01:51 32.5 °F /  0.3 °C 31.3 °F /  -0.4 °C 30.7in /  1041.0hPa Calm   1mph /  1.6km/h 95% 0in /  0.0mm 0 W/m2
01:56 32.5 °F /  0.3 °C 31.3 °F /  -0.4 °C 30.7in /  1041.0hPa ENE 0.9mph /  1.4km/h 3mph /  4.8km/h 95% 0in /  0.0mm 0 W/m2
02:01 32.5 °F /  0.3 °C 31.3 °F /  -0.4 °C 30.7in /  1041.0hPa Calm   1mph /  1.6km/h 95% 0in /  0.0mm 0 W/m2
02:06 32.5 °F /  0.3 °C 31.3 °F /  -0.4 °C 30.8in /  1041.3hPa Calm   2mph /  3.2km/h 95% 0in /  0.0mm 0 W/m2
02:11 32.5 °F /  0.3 °C 31.5 °F /  -0.3 °C 30.8in /  1041.3hPa NNW 0.9mph /  1.4km/h 3mph /  4.8km/h 96% 0in /  0.0mm 0 W/m2
02:16 32.5 °F /  0.3 °C 31.5 °F /  -0.3 °C 30.7in /  1041.0hPa North 0.9mph /  1.4km/h 2mph /  3.2km/h 96% 0in /  0.0mm 0 W/m2
02:21 32.5 °F /  0.3 °C 31.5 °F /  -0.3 °C 30.8in /  1041.3hPa North 0.9mph /  1.4km/h 2mph /  3.2km/h 96% 0in /  0.0mm 0 W/m2
02:27 32.5 °F /  0.3 °C 31.5 °F /  -0.3 °C 30.7in /  1041.0hPa NW 0.9mph /  1.4km/h 1mph /  1.6km/h 96% 0in /  0.0mm 0 W/m2
02:32 32.5 °F /  0.3 °C 31.5 °F /  -0.3 °C 30.7in /  1041.0hPa Calm   1mph /  1.6km/h 96% 0in /  0.0mm 0 W/m2
02:37 32.5 °F /  0.3 °C 31.5 °F /  -0.3 °C 30.7in /  1041.0hPa NNW 0.9mph /  1.4km/h 3mph /  4.8km/h 96% 0in /  0.0mm 0 W/m2
02:42 32.5 °F /  0.3 °C 31.5 °F /  -0.3 °C 30.7in /  1041.0hPa Calm   4mph /  6.4km/h 96% 0in /  0.0mm 0 W/m2
02:47 32.5 °F /  0.3 °C 31.5 °F /  -0.3 °C 30.7in /  1041.0hPa Calm   4mph /  6.4km/h 96% 0in /  0.0mm 0 W/m2
02:52 32.5 °F /  0.3 °C 31.3 °F /  -0.4 °C 30.7in /  1041.0hPa ESE 0.9mph /  1.4km/h 2mph /  3.2km/h 95% 0in /  0.0mm 0 W/m2
02:57 32.5 °F /  0.3 °C 31.5 °F /  -0.3 °C 30.7in /  1041.0hPa Calm   3mph /  4.8km/h 96% 0in /  0.0mm 0 W/m2
03:02 32.5 °F /  0.3 °C 31.5 °F /  -0.3 °C 30.8in /  1041.3hPa Calm   1mph /  1.6km/h 96% 0in /  0.0mm 0 W/m2
03:07 32.5 °F /  0.3 °C 31.5 °F /  -0.3 °C 30.8in /  1041.3hPa NE 0.9mph /  1.4km/h 3mph /  4.8km/h 96% 0in /  0.0mm 0 W/m2
03:12 32.5 °F /  0.3 °C 31.5 °F /  -0.3 °C 30.8in /  1041.3hPa Calm   1mph /  1.6km/h 96% 0in /  0.0mm 0 W/m2
03:17 32.5 °F /  0.3 °C 31.5 °F /  -0.3 °C 30.8in /  1041.3hPa North 0.9mph /  1.4km/h 3mph /  4.8km/h 96% 0in /  0.0mm 0 W/m2
03:22 32.5 °F /  0.3 °C 31.5 °F /  -0.3 °C 30.7in /  1041.0hPa Calm   2mph /  3.2km/h 96% 0in /  0.0mm 0 W/m2
03:27 32.5 °F /  0.3 °C 31.5 °F /  -0.3 °C 30.7in /  1041.0hPa Calm   1mph /  1.6km/h 96% 0in /  0.0mm 0 W/m2
03:32 32.5 °F /  0.3 °C 31.5 °F /  -0.3 °C 30.7in /  1041.0hPa Calm   2mph /  3.2km/h 96% 0in /  0.0mm 0 W/m2
03:37 32.5 °F /  0.3 °C 31.5 °F /  -0.3 °C 30.8in /  1041.3hPa Calm   2mph /  3.2km/h 96% 0in /  0.0mm 0 W/m2
03:42 32.5 °F /  0.3 °C 31.5 °F /  -0.3 °C 30.7in /  1041.0hPa NE 0.9mph /  1.4km/h 2mph /  3.2km/h 96% 0in /  0.0mm 0 W/m2
03:47 32.5 °F /  0.3 °C 31.5 °F /  -0.3 °C 30.7in /  1041.0hPa NNW 4mph /  6.4km/h 4mph /  6.4km/h 96% 0in /  0.0mm 0 W/m2
03:52 32.5 °F /  0.3 °C 31.5 °F /  -0.3 °C 30.7in /  1041.0hPa Calm   1mph /  1.6km/h 96% 0in /  0.0mm 0 W/m2
03:57 32.5 °F /  0.3 °C 31.5 °F /  -0.3 °C 30.7in /  1041.0hPa Calm     96% 0in /  0.0mm 0 W/m2
04:02 32.5 °F /  0.3 °C 31.5 °F /  -0.3 °C 30.7in /  1041.0hPa NE 0.9mph /  1.4km/h 1mph /  1.6km/h 96% 0in /  0.0mm 0 W/m2
04:07 32.5 °F /  0.3 °C 31.5 °F /  -0.3 °C 30.7in /  1041.0hPa Calm   1mph /  1.6km/h 96% 0in /  0.0mm 0 W/m2
04:12 32.5 °F /  0.3 °C 31.5 °F /  -0.3 °C 30.7in /  1041.0hPa Calm   4mph /  6.4km/h 96% 0in /  0.0mm 0 W/m2
04:17 32.5 °F /  0.3 °C 31.5 °F /  -0.3 °C 30.7in /  1041.0hPa NNE 0.9mph /  1.4km/h 2mph /  3.2km/h 96% 0in /  0.0mm 0 W/m2
04:22 32.5 °F /  0.3 °C 31.5 °F /  -0.3 °C 30.7in /  1041.0hPa Calm   2mph /  3.2km/h 96% 0in /  0.0mm 0 W/m2
04:27 32.5 °F /  0.3 °C 31.5 °F /  -0.3 °C 30.7in /  1041.0hPa Calm   2mph /  3.2km/h 96% 0in /  0.0mm 0 W/m2
04:32 32.5 °F /  0.3 °C 31.5 °F /  -0.3 °C 30.7in /  1041.0hPa North 0.9mph /  1.4km/h 3mph /  4.8km/h 96% 0in /  0.0mm 0 W/m2
04:37 32.5 °F /  0.3 °C 31.5 °F /  -0.3 °C 30.7in /  1041.0hPa NE 2mph /  3.2km/h 2mph /  3.2km/h 96% 0in /  0.0mm 0 W/m2
04:42 32.5 °F /  0.3 °C 31.5 °F /  -0.3 °C 30.7in /  1041.0hPa Calm   2mph /  3.2km/h 96% 0in /  0.0mm 0 W/m2
04:47 32.4 °F /  0.2 °C 31.3 °F /  -0.4 °C 30.7in /  1041.0hPa NNW 0.9mph /  1.4km/h 3mph /  4.8km/h 96% 0in /  0.0mm 0 W/m2
04:52 32.4 °F /  0.2 °C 31.3 °F /  -0.4 °C 30.7in /  1041.0hPa Calm   1mph /  1.6km/h 96% 0in /  0.0mm 0 W/m2
04:57 32.4 °F /  0.2 °C 31.3 °F /  -0.4 °C 30.7in /  1041.0hPa Calm   3mph /  4.8km/h 96% 0in /  0.0mm 0 W/m2
05:02 32.4 °F /  0.2 °C 31.3 °F /  -0.4 °C 30.7in /  1041.0hPa Calm   1mph /  1.6km/h 96% 0in /  0.0mm 0 W/m2
05:07 32.4 °F /  0.2 °C 31.3 °F /  -0.4 °C 30.7in /  1041.0hPa Calm     96% 0in /  0.0mm 0 W/m2
05:12 32.4 °F /  0.2 °C 31.3 °F /  -0.4 °C 30.7in /  1041.0hPa Calm   2mph /  3.2km/h 96% 0in /  0.0mm 0 W/m2
05:17 32.4 °F /  0.2 °C 31.3 °F /  -0.4 °C 30.7in /  1041.0hPa NE 0.9mph /  1.4km/h 3mph /  4.8km/h 96% 0in /  0.0mm 0 W/m2
05:22 32.4 °F /  0.2 °C 31.3 °F /  -0.4 °C 30.7in /  1041.0hPa Calm   1mph /  1.6km/h 96% 0in /  0.0mm 0 W/m2
05:27 32.4 °F /  0.2 °C 31.3 °F /  -0.4 °C 30.7in /  1041.0hPa East 0.9mph /  1.4km/h 3mph /  4.8km/h 96% 0in /  0.0mm 0 W/m2
05:32 32.4 °F /  0.2 °C 31.3 °F /  -0.4 °C 30.7in /  1041.0hPa NE 0.9mph /  1.4km/h 1mph /  1.6km/h 96% 0in /  0.0mm 0 W/m2
05:37 32.4 °F /  0.2 °C 31.3 °F /  -0.4 °C 30.7in /  1041.0hPa Calm   2mph /  3.2km/h 96% 0in /  0.0mm 0 W/m2
05:42 32.2 °F /  0.1 °C 31.1 °F /  -0.5 °C 30.8in /  1041.3hPa ENE 0.9mph /  1.4km/h 2mph /  3.2km/h 96% 0in /  0.0mm 0 W/m2
05:47 32.2 °F /  0.1 °C 31.1 °F /  -0.5 °C 30.7in /  1041.0hPa Calm   2mph /  3.2km/h 96% 0in /  0.0mm 0 W/m2
05:52 32.2 °F /  0.1 °C 31.1 °F /  -0.5 °C 30.8in /  1041.3hPa West 2mph /  3.2km/h 2mph /  3.2km/h 96% 0in /  0.0mm 0 W/m2
05:57 32.2 °F /  0.1 °C 31.1 °F /  -0.5 °C 30.7in /  1041.0hPa Calm   2mph /  3.2km/h 96% 0in /  0.0mm 0 W/m2
06:02 32.2 °F /  0.1 °C 31.1 °F /  -0.5 °C 30.7in /  1041.0hPa Calm     96% 0in /  0.0mm 0 W/m2
06:07 32.2 °F /  0.1 °C 31.1 °F /  -0.5 °C 30.7in /  1041.0hPa NW 0.9mph /  1.4km/h 2mph /  3.2km/h 96% 0in /  0.0mm 0 W/m2
06:12 32.2 °F /  0.1 °C 31.1 °F /  -0.5 °C 30.7in /  1041.0hPa NNE 0.9mph /  1.4km/h 1mph /  1.6km/h 96% 0in /  0.0mm 0 W/m2
06:17 32.2 °F /  0.1 °C 31.1 °F /  -0.5 °C 30.7in /  1041.0hPa Calm   3mph /  4.8km/h 96% 0in /  0.0mm 0 W/m2
06:22 32.2 °F /  0.1 °C 31.1 °F /  -0.5 °C 30.7in /  1041.0hPa ENE 0.9mph /  1.4km/h 2mph /  3.2km/h 96% 0in /  0.0mm 0 W/m2
06:27 32.2 °F /  0.1 °C 31.1 °F /  -0.5 °C 30.7in /  1041.0hPa Calm   3mph /  4.8km/h 96% 0in /  0.0mm 0 W/m2
06:32 32.2 °F /  0.1 °C 31.1 °F /  -0.5 °C 30.7in /  1041.0hPa NE 0.9mph /  1.4km/h 2mph /  3.2km/h 96% 0in /  0.0mm 0 W/m2
06:37 32.2 °F /  0.1 °C 31.1 °F /  -0.5 °C 30.7in /  1041.0hPa Calm     96% 0in /  0.0mm 0 W/m2
06:42 32.2 °F /  0.1 °C 31.1 °F /  -0.5 °C 30.7in /  1041.0hPa NE 2mph /  3.2km/h 4mph /  6.4km/h 96% 0in /  0.0mm 0 W/m2
06:47 32.2 °F /  0.1 °C 31.1 °F /  -0.5 °C 30.7in /  1041.0hPa NE 0.9mph /  1.4km/h 1mph /  1.6km/h 96% 0in /  0.0mm 0 W/m2
06:52 32.2 °F /  0.1 °C 31.1 °F /  -0.5 °C 30.7in /  1041.0hPa ESE 0.9mph /  1.4km/h 4mph /  6.4km/h 96% 0in /  0.0mm 0 W/m2
06:57 32.2 °F /  0.1 °C 31.1 °F /  -0.5 °C 30.7in /  1040.6hPa Calm   1mph /  1.6km/h 96% 0in /  0.0mm 0 W/m2
07:02 32.2 °F /  0.1 °C 31.1 °F /  -0.5 °C 30.7in /  1040.6hPa East 0.9mph /  1.4km/h 4mph /  6.4km/h 96% 0in /  0.0mm 0 W/m2
07:07 32.2 °F /  0.1 °C 31.1 °F /  -0.5 °C 30.7in /  1040.6hPa Calm   1mph /  1.6km/h 96% 0in /  0.0mm 0 W/m2
07:12 32.2 °F /  0.1 °C 31.1 °F /  -0.5 °C 30.7in /  1040.6hPa NNE 2mph /  3.2km/h 4mph /  6.4km/h 96% 0in /  0.0mm 0 W/m2
07:17 32.2 °F /  0.1 °C 31.1 °F /  -0.5 °C 30.7in /  1040.6hPa NNW 0.9mph /  1.4km/h 2mph /  3.2km/h 96% 0in /  0.0mm 0 W/m2
07:22 32.2 °F /  0.1 °C 31.1 °F /  -0.5 °C 30.7in /  1040.6hPa NW 2mph /  3.2km/h 4mph /  6.4km/h 96% 0in /  0.0mm 0 W/m2
07:27 32 °F /  0 °C 30.9 °F /  -0.6 °C 30.7in /  1040.6hPa NE 0.9mph /  1.4km/h 4mph /  6.4km/h 96% 0in /  0.0mm 0 W/m2
07:32 32 °F /  0 °C 30.9 °F /  -0.6 °C 30.7in /  1040.6hPa Calm   2mph /  3.2km/h 96% 0in /  0.0mm 0 W/m2
07:37 31.8 °F /  -0.1 °C 30.7 °F /  -0.7 °C 30.7in /  1040.6hPa Calm   3mph /  4.8km/h 96% 0in /  0.0mm 0 W/m2
07:42 31.8 °F /  -0.1 °C 30.7 °F /  -0.7 °C 30.7in /  1040.6hPa North 0.9mph /  1.4km/h 1mph /  1.6km/h 96% 0in /  0.0mm 0 W/m2
07:47 31.8 °F /  -0.1 °C 30.7 °F /  -0.7 °C 30.7in /  1040.6hPa NNE 0.9mph /  1.4km/h 3mph /  4.8km/h 96% 0in /  0.0mm 0 W/m2
07:52 31.8 °F /  -0.1 °C 30.7 °F /  -0.7 °C 30.7in /  1040.6hPa Calm   2mph /  3.2km/h 96% 0in /  0.0mm 0 W/m2
07:57 31.6 °F /  -0.2 °C 30.6 °F /  -0.8 °C 30.7in /  1040.6hPa West 2.9mph /  4.7km/h 4mph /  6.4km/h 96% 0in /  0.0mm 0 W/m2
08:02 31.6 °F /  -0.2 °C 30.6 °F /  -0.8 °C 30.7in /  1041.0hPa NE 2mph /  3.2km/h 3mph /  4.8km/h 96% 0in /  0.0mm 0 W/m2
08:07 31.6 °F /  -0.2 °C 30.6 °F /  -0.8 °C 30.7in /  1041.0hPa NNE 4mph /  6.4km/h 4mph /  6.4km/h 96% 0in /  0.0mm 0 W/m2
08:12 31.6 °F /  -0.2 °C 30.6 °F /  -0.8 °C 30.7in /  1041.0hPa Calm   2mph /  3.2km/h 96% 0in /  0.0mm 0 W/m2
08:17 31.6 °F /  -0.2 °C 30.6 °F /  -0.8 °C 30.7in /  1041.0hPa Calm   2mph /  3.2km/h 96% 0in /  0.0mm 0 W/m2
08:22 31.6 °F /  -0.2 °C 30.6 °F /  -0.8 °C 30.8in /  1041.3hPa Calm   1mph /  1.6km/h 96% 0in /  0.0mm 0 W/m2
08:27 31.6 °F /  -0.2 °C 30.6 °F /  -0.8 °C 30.8in /  1041.3hPa NNW 2mph /  3.2km/h 2mph /  3.2km/h 96% 0in /  0.0mm 0 W/m2
08:32 31.6 °F /  -0.2 °C 30.6 °F /  -0.8 °C 30.8in /  1041.3hPa Calm   1mph /  1.6km/h 96% 0in /  0.0mm 0 W/m2
08:37 31.6 °F /  -0.2 °C 30.6 °F /  -0.8 °C 30.8in /  1041.3hPa NNW 2mph /  3.2km/h 3mph /  4.8km/h 96% 0in /  0.0mm 0 W/m2
08:42 31.6 °F /  -0.2 °C 30.6 °F /  -0.8 °C 30.8in /  1041.3hPa ENE 2mph /  3.2km/h 2mph /  3.2km/h 96% 0in /  0.0mm 0 W/m2
08:47 31.5 °F /  -0.3 °C 30.4 °F /  -0.9 °C 30.8in /  1041.3hPa Calm   4mph /  6.4km/h 96% 0in /  0.0mm 5 W/m2
08:52 31.5 °F /  -0.3 °C 30.4 °F /  -0.9 °C 30.8in /  1041.3hPa NNW 2.9mph /  4.7km/h 5mph /  8km/h 96% 0in /  0.0mm 5 W/m2
08:57 31.5 °F /  -0.3 °C 30.4 °F /  -0.9 °C 30.8in /  1041.3hPa WNW 0.9mph /  1.4km/h 3mph /  4.8km/h 96% 0in /  0.0mm 7 W/m2
09:02 31.5 °F /  -0.3 °C 30.4 °F /  -0.9 °C 30.8in /  1041.3hPa Calm   5mph /  8km/h 96% 0in /  0.0mm 7 W/m2
09:07 31.3 °F /  -0.4 °C 30.2 °F /  -1 °C 30.8in /  1041.3hPa Calm   3mph /  4.8km/h 96% 0in /  0.0mm 9 W/m2
09:12 31.5 °F /  -0.3 °C 30.4 °F /  -0.9 °C 30.8in /  1041.3hPa NNW 2mph /  3.2km/h 5mph /  8km/h 96% 0in /  0.0mm 11 W/m2
09:17 31.5 °F /  -0.3 °C 30.4 °F /  -0.9 °C 30.8in /  1041.3hPa Calm   1mph /  1.6km/h 96% 0in /  0.0mm 12 W/m2
09:22 31.5 °F /  -0.3 °C 30.4 °F /  -0.9 °C 30.8in /  1041.3hPa NE 0.9mph /  1.4km/h 3mph /  4.8km/h 96% 0in /  0.0mm 12 W/m2
09:27 31.5 °F /  -0.3 °C 30.4 °F /  -0.9 °C 30.8in /  1041.3hPa North 0.9mph /  1.4km/h 1mph /  1.6km/h 96% 0in /  0.0mm 14 W/m2
09:32 31.5 °F /  -0.3 °C 30.4 °F /  -0.9 °C 30.8in /  1041.3hPa Calm   2mph /  3.2km/h 96% 0in /  0.0mm 18 W/m2
09:37 31.5 °F /  -0.3 °C 30.4 °F /  -0.9 °C 30.8in /  1041.3hPa NW 0.9mph /  1.4km/h 2mph /  3.2km/h 96% 0in /  0.0mm 19 W/m2
09:42 31.5 °F /  -0.3 °C 30.4 °F /  -0.9 °C 30.8in /  1041.3hPa NNW 0.9mph /  1.4km/h 1mph /  1.6km/h 96% 0in /  0.0mm 19 W/m2
09:47 31.5 °F /  -0.3 °C 30.4 °F /  -0.9 °C 30.8in /  1041.3hPa NNE 2mph /  3.2km/h 2mph /  3.2km/h 96% 0in /  0.0mm 23 W/m2
09:52 31.5 °F /  -0.3 °C 30.4 °F /  -0.9 °C 30.8in /  1041.3hPa Calm   1mph /  1.6km/h 96% 0in /  0.0mm 25 W/m2
09:57 31.6 °F /  -0.2 °C 30.6 °F /  -0.8 °C 30.8in /  1041.3hPa NE 0.9mph /  1.4km/h 4mph /  6.4km/h 96% 0in /  0.0mm 23 W/m2
10:02 31.5 °F /  -0.3 °C 30.4 °F /  -0.9 °C 30.8in /  1041.3hPa Calm   1mph /  1.6km/h 96% 0in /  0.0mm 26 W/m2
10:07 31.5 °F /  -0.3 °C 30.4 °F /  -0.9 °C 30.8in /  1041.3hPa Calm   1mph /  1.6km/h 96% 0in /  0.0mm 30 W/m2
10:12 31.5 °F /  -0.3 °C 30.4 °F /  -0.9 °C 30.8in /  1041.3hPa Calm   3mph /  4.8km/h 96% 0in /  0.0mm 30 W/m2
10:17 31.5 °F /  -0.3 °C 30.4 °F /  -0.9 °C 30.8in /  1041.3hPa Calm   2mph /  3.2km/h 96% 0in /  0.0mm 30 W/m2
10:22 31.5 °F /  -0.3 °C 30.4 °F /  -0.9 °C 30.8in /  1041.3hPa Calm   2mph /  3.2km/h 96% 0in /  0.0mm 33 W/m2
10:27 31.5 °F /  -0.3 °C 30.4 °F /  -0.9 °C 30.8in /  1041.3hPa Calm   1mph /  1.6km/h 96% 0in /  0.0mm 33 W/m2
10:32 31.5 °F /  -0.3 °C 30.4 °F /  -0.9 °C 30.8in /  1041.3hPa NNE 0.9mph /  1.4km/h 2mph /  3.2km/h 96% 0in /  0.0mm 39 W/m2
10:37 31.5 °F /  -0.3 °C 30.4 °F /  -0.9 °C 30.8in /  1041.3hPa Calm   4mph /  6.4km/h 96% 0in /  0.0mm 47 W/m2
10:42 31.5 °F /  -0.3 °C 30.4 °F /  -0.9 °C 30.8in /  1041.3hPa Calm   1mph /  1.6km/h 96% 0in /  0.0mm 47 W/m2
10:47 31.5 °F /  -0.3 °C 30.4 °F /  -0.9 °C 30.8in /  1041.3hPa ENE 2.9mph /  4.7km/h 3mph /  4.8km/h 96% 0in /  0.0mm 47 W/m2
10:52 31.5 °F /  -0.3 °C 30.4 °F /  -0.9 °C 30.8in /  1041.3hPa Calm   1mph /  1.6km/h 96% 0in /  0.0mm 51 W/m2
10:57 31.5 °F /  -0.3 °C 30.4 °F /  -0.9 °C 30.8in /  1041.3hPa ENE 2mph /  3.2km/h 4mph /  6.4km/h 96% 0in /  0.0mm 46 W/m2
11:02 31.5 °F /  -0.3 °C 30.4 °F /  -0.9 °C 30.8in /  1041.7hPa Calm     96% 0in /  0.0mm 42 W/m2
11:07 31.5 °F /  -0.3 °C 30.4 °F /  -0.9 °C 30.8in /  1041.7hPa Calm   4mph /  6.4km/h 96% 0in /  0.0mm 54 W/m2
11:12 31.5 °F /  -0.3 °C 30.4 °F /  -0.9 °C 30.8in /  1041.7hPa Calm   2mph /  3.2km/h 96% 0in /  0.0mm 62 W/m2
11:17 31.6 °F /  -0.2 °C 30.6 °F /  -0.8 °C 30.8in /  1041.3hPa East 0.9mph /  1.4km/h 2mph /  3.2km/h 96% 0in /  0.0mm 63 W/m2
11:22 31.6 °F /  -0.2 °C 30.6 °F /  -0.8 °C 30.8in /  1041.3hPa ENE 2mph /  3.2km/h 2mph /  3.2km/h 96% 0in /  0.0mm 62 W/m2
11:27 31.6 °F /  -0.2 °C 30.6 °F /  -0.8 °C 30.8in /  1041.3hPa Calm   2mph /  3.2km/h 96% 0in /  0.0mm 60 W/m2
11:32 31.8 °F /  -0.1 °C 30.7 °F /  -0.7 °C 30.8in /  1041.3hPa ENE 2mph /  3.2km/h 3mph /  4.8km/h 96% 0in /  0.0mm 63 W/m2
11:37 31.8 °F /  -0.1 °C 30.7 °F /  -0.7 °C 30.8in /  1041.3hPa ENE 0.9mph /  1.4km/h 3mph /  4.8km/h 96% 0in /  0.0mm 65 W/m2
11:42 31.8 °F /  -0.1 °C 30.7 °F /  -0.7 °C 30.8in /  1041.3hPa East 0.9mph /  1.4km/h 2mph /  3.2km/h 96% 0in /  0.0mm 69 W/m2
11:48 31.8 °F /  -0.1 °C 30.7 °F /  -0.7 °C 30.8in /  1041.3hPa Calm   1mph /  1.6km/h 96% 0in /  0.0mm 74 W/m2
11:53 31.8 °F /  -0.1 °C 31.1 °F /  -0.5 °C 30.8in /  1041.3hPa East 2mph /  3.2km/h 2mph /  3.2km/h 97% 0in /  0.0mm 70 W/m2
11:58 31.8 °F /  -0.1 °C 31.1 °F /  -0.5 °C 30.8in /  1041.3hPa ESE 2mph /  3.2km/h 2mph /  3.2km/h 97% 0in /  0.0mm 69 W/m2
12:03 31.8 °F /  -0.1 °C 30.7 °F /  -0.7 °C 30.8in /  1041.3hPa Calm   1mph /  1.6km/h 96% 0in /  0.0mm 67 W/m2
12:08 31.8 °F /  -0.1 °C 30.7 °F /  -0.7 °C 30.8in /  1041.3hPa WNW 2.9mph /  4.7km/h 3mph /  4.8km/h 96% 0in /  0.0mm 69 W/m2
12:13 31.8 °F /  -0.1 °C 31.1 °F /  -0.5 °C 30.8in /  1041.3hPa Calm   1mph /  1.6km/h 97% 0in /  0.0mm 74 W/m2
12:18 32 °F /  0 °C 31.3 °F /  -0.4 °C 30.8in /  1041.3hPa North 0.9mph /  1.4km/h 2mph /  3.2km/h 97% 0in /  0.0mm 74 W/m2
12:23 32.2 °F /  0.1 °C 31.5 °F /  -0.3 °C 30.8in /  1041.3hPa North 0.9mph /  1.4km/h 2mph /  3.2km/h 97% 0in /  0.0mm 84 W/m2
12:28 32.4 °F /  0.2 °C 31.6 °F /  -0.2 °C 30.7in /  1041.0hPa NNW 2mph /  3.2km/h 3mph /  4.8km/h 97% 0in /  0.0mm 84 W/m2
12:33 32.2 °F /  0.1 °C 31.5 °F /  -0.3 °C 30.7in /  1041.0hPa North 0.9mph /  1.4km/h 1mph /  1.6km/h 97% 0in /  0.0mm 107 W/m2
12:38 32.2 °F /  0.1 °C 31.5 °F /  -0.3 °C 30.7in /  1041.0hPa Calm     97% 0in /  0.0mm 97 W/m2
12:43 32.2 °F /  0.1 °C 31.1 °F /  -0.5 °C 30.7in /  1041.0hPa Calm     96% 0in /  0.0mm 97 W/m2
12:48 32.4 °F /  0.2 °C 31.3 °F /  -0.4 °C 30.7in /  1041.0hPa Calm     96% 0in /  0.0mm 109 W/m2
12:53 32.4 °F /  0.2 °C 31.3 °F /  -0.4 °C 30.7in /  1040.6hPa NNW 2mph /  3.2km/h 3mph /  4.8km/h 96% 0in /  0.0mm 93 W/m2
12:58 32.4 °F /  0.2 °C 31.3 °F /  -0.4 °C 30.7in /  1041.0hPa Calm   1mph /  1.6km/h 96% 0in /  0.0mm 102 W/m2
13:03 32.5 °F /  0.3 °C 31.5 °F /  -0.3 °C 30.7in /  1040.6hPa Calm   3mph /  4.8km/h 96% 0in /  0.0mm 113 W/m2
13:08 32.5 °F /  0.3 °C 31.5 °F /  -0.3 °C 30.7in /  1040.6hPa Calm     96% 0in /  0.0mm 93 W/m2
13:13 32.5 °F /  0.3 °C 31.8 °F /  -0.1 °C 30.7in /  1040.6hPa Calm   1mph /  1.6km/h 97% 0in /  0.0mm 83 W/m2
13:18 32.7 °F /  0.4 °C 31.6 °F /  -0.2 °C 30.7in /  1040.6hPa East 2mph /  3.2km/h 2mph /  3.2km/h 96% 0in /  0.0mm 139 W/m2
13:23 32.9 °F /  0.5 °C 31.8 °F /  -0.1 °C 30.7in /  1040.6hPa ENE 0.9mph /  1.4km/h 2mph /  3.2km/h 96% 0in /  0.0mm 162 W/m2
13:28 33.3 °F /  0.7 °C 32.5 °F /  0.3 °C 30.7in /  1040.6hPa Calm   4mph /  6.4km/h 97% 0in /  0.0mm 109 W/m2
13:33 33.3 °F /  0.7 °C 32.2 °F /  0.1 °C 30.7in /  1040.6hPa ESE 0.9mph /  1.4km/h 3mph /  4.8km/h 96% 0in /  0.0mm 118 W/m2
13:38 33.4 °F /  0.8 °C 32.4 °F /  0.2 °C 30.7in /  1040.6hPa Calm   2mph /  3.2km/h 96% 0in /  0.0mm 132 W/m2
13:43 33.3 °F /  0.7 °C 32.2 °F /  0.1 °C 30.7in /  1040.6hPa Calm     96% 0in /  0.0mm 128 W/m2
13:48 33.4 °F /  0.8 °C 32.4 °F /  0.2 °C 30.7in /  1040.3hPa Calm   2mph /  3.2km/h 96% 0in /  0.0mm 144 W/m2
13:53 33.6 °F /  0.9 °C 32.5 °F /  0.3 °C 30.7in /  1040.3hPa Calm     96% 0in /  0.0mm 114 W/m2
13:58 33.6 °F /  0.9 °C 32.5 °F /  0.3 °C 30.7in /  1040.3hPa Calm   1mph /  1.6km/h 96% 0in /  0.0mm 62 W/m2
14:03 33.8 °F /  1 °C 32.7 °F /  0.4 °C 30.7in /  1040.0hPa Calm     96% 0in /  0.0mm 76 W/m2
14:08 34 °F /  1.1 °C 32.9 °F /  0.5 °C 30.7in /  1040.0hPa Calm   1mph /  1.6km/h 96% 0in /  0.0mm 63 W/m2
14:13 34 °F /  1.1 °C 32.9 °F /  0.5 °C 30.7in /  1040.0hPa East 0.9mph /  1.4km/h 2mph /  3.2km/h 96% 0in /  0.0mm 65 W/m2
14:18 34 °F /  1.1 °C 32.7 °F /  0.4 °C 30.7in /  1040.0hPa Calm     95% 0in /  0.0mm 44 W/m2
14:23 34.2 °F /  1.2 °C 32.9 °F /  0.5 °C 30.7in /  1040.0hPa Calm   2mph /  3.2km/h 95% 0in /  0.0mm 35 W/m2
14:28 34.2 °F /  1.2 °C 32.9 °F /  0.5 °C 30.7in /  1040.0hPa Calm   2mph /  3.2km/h 95% 0in /  0.0mm 33 W/m2
14:33 34.2 °F /  1.2 °C 32.9 °F /  0.5 °C 30.7in /  1040.0hPa Calm   1mph /  1.6km/h 95% 0in /  0.0mm 37 W/m2
14:38 34.2 °F /  1.2 °C 32.9 °F /  0.5 °C 30.7in /  1040.0hPa East 0.9mph /  1.4km/h 2mph /  3.2km/h 95% 0in /  0.0mm 39 W/m2
14:43 34.2 °F /  1.2 °C 32.9 °F /  0.5 °C 30.7in /  1040.0hPa East 0.9mph /  1.4km/h 1mph /  1.6km/h 95% 0in /  0.0mm 35 W/m2
14:48 34.2 °F /  1.2 °C 32.9 °F /  0.5 °C 30.7in /  1040.0hPa Calm     95% 0in /  0.0mm 33 W/m2
14:53 34.3 °F /  1.3 °C 33.1 °F /  0.6 °C 30.7in /  1040.0hPa Calm     95% 0in /  0.0mm 32 W/m2
14:58 34.3 °F /  1.3 °C 33.1 °F /  0.6 °C 30.7in /  1040.0hPa Calm   2mph /  3.2km/h 95% 0in /  0.0mm 32 W/m2
15:03 34.2 °F /  1.2 °C 32.9 °F /  0.5 °C 30.7in /  1040.0hPa Calm   1mph /  1.6km/h 95% 0in /  0.0mm 30 W/m2
15:08 34.3 °F /  1.3 °C 33.1 °F /  0.6 °C 30.7in /  1040.0hPa Calm   2mph /  3.2km/h 95% 0in /  0.0mm 30 W/m2
15:13 34.2 °F /  1.2 °C 32.5 °F /  0.3 °C 30.7in /  1040.0hPa Calm     94% 0in /  0.0mm 28 W/m2
15:18 34.2 °F /  1.2 °C 32.5 °F /  0.3 °C 30.7in /  1040.0hPa Calm     94% 0in /  0.0mm 26 W/m2
15:23 34.2 °F /  1.2 °C 32.5 °F /  0.3 °C 30.7in /  1040.0hPa Calm     94% 0in /  0.0mm 26 W/m2
15:28 34.2 °F /  1.2 °C 32.5 °F /  0.3 °C 30.7in /  1040.0hPa Calm     94% 0in /  0.0mm 25 W/m2
15:33 34.2 °F /  1.2 °C 32.5 °F /  0.3 °C 30.7in /  1040.0hPa Calm     94% 0in /  0.0mm 25 W/m2
15:38 34.2 °F /  1.2 °C 32.5 °F /  0.3 °C 30.7in /  1040.0hPa Calm     94% 0in /  0.0mm 25 W/m2
15:43 34 °F /  1.1 °C 32.4 °F /  0.2 °C 30.7in /  1040.0hPa Calm     94% 0in /  0.0mm 25 W/m2
15:48 34 °F /  1.1 °C 32.4 °F /  0.2 °C 30.7in /  1040.0hPa Calm     94% 0in /  0.0mm 25 W/m2
15:53 34 °F /  1.1 °C 32.4 °F /  0.2 °C 30.7in /  1040.0hPa Calm     94% 0in /  0.0mm 23 W/m2
15:58 34 °F /  1.1 °C 32.4 °F /  0.2 °C 30.7in /  1040.0hPa Calm     94% 0in /  0.0mm 21 W/m2
16:03 34 °F /  1.1 °C 32.7 °F /  0.4 °C 30.7in /  1040.0hPa Calm     95% 0in /  0.0mm 21 W/m2
16:08 34 °F /  1.1 °C 32.7 °F /  0.4 °C 30.7in /  1040.0hPa Calm     95% 0in /  0.0mm 21 W/m2
16:13 34 °F /  1.1 °C 32.7 °F /  0.4 °C 30.7in /  1040.0hPa Calm     95% 0in /  0.0mm 21 W/m2
16:18 34 °F /  1.1 °C 32.7 °F /  0.4 °C 30.7in /  1040.0hPa Calm     95% 0in /  0.0mm 19 W/m2
16:23 34 °F /  1.1 °C 32.7 °F /  0.4 °C 30.7in /  1040.0hPa Calm     95% 0in /  0.0mm 18 W/m2
16:28 34 °F /  1.1 °C 32.7 °F /  0.4 °C 30.7in /  1040.0hPa Calm     95% 0in /  0.0mm 16 W/m2
16:33 34 °F /  1.1 °C 32.7 °F /  0.4 °C 30.7in /  1039.6hPa Calm     95% 0in /  0.0mm 14 W/m2
16:38 34 °F /  1.1 °C 32.7 °F /  0.4 °C 30.7in /  1039.6hPa Calm     95% 0in /  0.0mm 12 W/m2
16:43 34 °F /  1.1 °C 32.7 °F /  0.4 °C 30.7in /  1039.6hPa Calm     95% 0in /  0.0mm 11 W/m2
16:49 33.8 °F /  1 °C 32.5 °F /  0.3 °C 30.7in /  1039.6hPa Calm     95% 0in /  0.0mm 11 W/m2
16:54 33.8 °F /  1 °C 32.5 °F /  0.3 °C 30.7in /  1039.6hPa Calm     95% 0in /  0.0mm 9 W/m2
16:59 33.6 °F /  0.9 °C 32.4 °F /  0.2 °C 30.7in /  1039.6hPa Calm     95% 0in /  0.0mm 7 W/m2
17:04 33.6 °F /  0.9 °C 32 °F /  0 °C 30.7in /  1039.6hPa Calm     94% 0in /  0.0mm 5 W/m2
17:09 33.4 °F /  0.8 °C 31.8 °F /  -0.1 °C 30.7in /  1039.6hPa Calm     94% 0in /  0.0mm 5 W/m2
17:14 33.4 °F /  0.8 °C 32.2 °F /  0.1 °C 30.7in /  1039.6hPa Calm     95% 0in /  0.0mm 0 W/m2
17:19 33.3 °F /  0.7 °C 32 °F /  0 °C 30.7in /  1039.6hPa Calm     95% 0in /  0.0mm 0 W/m2
17:24 33.3 °F /  0.7 °C 32 °F /  0 °C 30.7in /  1039.6hPa Calm     95% 0in /  0.0mm 0 W/m2
17:29 33.3 °F /  0.7 °C 32 °F /  0 °C 30.7in /  1039.6hPa Calm     95% 0in /  0.0mm 0 W/m2
17:34 33.1 °F /  0.6 °C 31.8 °F /  -0.1 °C 30.7in /  1039.6hPa Calm     95% 0in /  0.0mm 0 W/m2
17:39 32.7 °F /  0.4 °C 31.5 °F /  -0.3 °C 30.7in /  1039.3hPa Calm     95% 0in /  0.0mm 0 W/m2
17:44 32.7 °F /  0.4 °C 31.5 °F /  -0.3 °C 30.7in /  1039.3hPa Calm     95% 0in /  0.0mm 0 W/m2
17:49 32.7 °F /  0.4 °C 31.5 °F /  -0.3 °C 30.7in /  1039.3hPa Calm     95% 0in /  0.0mm 0 W/m2
17:54 32.5 °F /  0.3 °C 31.3 °F /  -0.4 °C 30.7in /  1039.3hPa Calm     95% 0in /  0.0mm 0 W/m2
17:59 32.5 °F /  0.3 °C 31.3 °F /  -0.4 °C 30.7in /  1039.3hPa Calm     95% 0in /  0.0mm 0 W/m2
18:04 32.5 °F /  0.3 °C 31.3 °F /  -0.4 °C 30.7in /  1038.9hPa Calm     95% 0in /  0.0mm 0 W/m2
18:09 32.5 °F /  0.3 °C 31.3 °F /  -0.4 °C 30.7in /  1038.9hPa Calm     95% 0in /  0.0mm 0 W/m2
18:14 32.4 °F /  0.2 °C 31.1 °F /  -0.5 °C 30.7in /  1038.9hPa Calm     95% 0in /  0.0mm 0 W/m2
18:19 32.4 °F /  0.2 °C 31.1 °F /  -0.5 °C 30.7in /  1038.9hPa Calm     95% 0in /  0.0mm 0 W/m2
18:24 32.4 °F /  0.2 °C 31.1 °F /  -0.5 °C 30.7in /  1038.9hPa Calm     95% 0in /  0.0mm 0 W/m2
18:29 32.4 °F /  0.2 °C 31.1 °F /  -0.5 °C 30.7in /  1039.3hPa Calm     95% 0in /  0.0mm 0 W/m2
18:34 32.4 °F /  0.2 °C 31.1 °F /  -0.5 °C 30.7in /  1038.9hPa Calm     95% 0in /  0.0mm 0 W/m2
18:39 32.2 °F /  0.1 °C 30.9 °F /  -0.6 °C 30.7in /  1039.3hPa Calm     95% 0in /  0.0mm 0 W/m2
18:44 32.2 °F /  0.1 °C 30.9 °F /  -0.6 °C 30.7in /  1039.3hPa Calm     95% 0in /  0.0mm 0 W/m2
18:49 32 °F /  0 °C 30.7 °F /  -0.7 °C 30.7in /  1039.3hPa Calm     95% 0in /  0.0mm 0 W/m2
18:54 32 °F /  0 °C 30.7 °F /  -0.7 °C 30.7in /  1038.9hPa Calm     95% 0in /  0.0mm 0 W/m2
18:59 31.8 °F /  -0.1 °C 30.6 °F /  -0.8 °C 30.7in /  1038.9hPa Calm     95% 0in /  0.0mm 0 W/m2
19:04 31.8 °F /  -0.1 °C 30.6 °F /  -0.8 °C 30.7in /  1039.3hPa Calm     95% 0in /  0.0mm 0 W/m2
19:09 31.8 °F /  -0.1 °C 30.6 °F /  -0.8 °C 30.7in /  1039.3hPa Calm     95% 0in /  0.0mm 0 W/m2
19:14 31.8 °F /  -0.1 °C 30.6 °F /  -0.8 °C 30.7in /  1039.3hPa Calm     95% 0in /  0.0mm 0 W/m2
19:19 31.8 °F /  -0.1 °C 30.6 °F /  -0.8 °C 30.7in /  1039.3hPa Calm     95% 0in /  0.0mm 0 W/m2
19:24 31.8 °F /  -0.1 °C 30.6 °F /  -0.8 °C 30.7in /  1039.3hPa Calm     95% 0in /  0.0mm 0 W/m2
19:29 31.8 °F /  -0.1 °C 30.7 °F /  -0.7 °C 30.7in /  1039.3hPa Calm     96% 0in /  0.0mm 0 W/m2
19:34 32 °F /  0 °C 30.9 °F /  -0.6 °C 30.7in /  1039.3hPa Calm     96% 0in /  0.0mm 0 W/m2
19:39 32 °F /  0 °C 30.9 °F /  -0.6 °C 30.7in /  1039.3hPa Calm     96% 0in /  0.0mm 0 W/m2
19:44 32 °F /  0 °C 30.9 °F /  -0.6 °C 30.7in /  1038.9hPa Calm     96% 0in /  0.0mm 0 W/m2
19:49 32 °F /  0 °C 30.9 °F /  -0.6 °C 30.7in /  1038.9hPa Calm     96% 0in /  0.0mm 0 W/m2
19:54 32 °F /  0 °C 30.9 °F /  -0.6 °C 30.7in /  1038.9hPa Calm     96% 0in /  0.0mm 0 W/m2
19:59 32 °F /  0 °C 30.9 °F /  -0.6 °C 30.7in /  1038.9hPa Calm     96% 0in /  0.0mm 0 W/m2
20:04 32 °F /  0 °C 30.9 °F /  -0.6 °C 30.7in /  1038.9hPa Calm     96% 0in /  0.0mm 0 W/m2
20:09 32 °F /  0 °C 30.9 °F /  -0.6 °C 30.7in /  1038.9hPa Calm     96% 0in /  0.0mm 0 W/m2
20:14 31.8 °F /  -0.1 °C 30.7 °F /  -0.7 °C 30.7in /  1038.9hPa Calm     96% 0in /  0.0mm 0 W/m2
20:19 31.6 °F /  -0.2 °C 30.6 °F /  -0.8 °C 30.7in /  1038.9hPa Calm     96% 0in /  0.0mm 0 W/m2
20:24 31.6 °F /  -0.2 °C 30.6 °F /  -0.8 °C 30.7in /  1038.9hPa Calm     96% 0in /  0.0mm 0 W/m2
20:29 31.5 °F /  -0.3 °C 30.4 °F /  -0.9 °C 30.7in /  1038.9hPa Calm     96% 0in /  0.0mm 0 W/m2
20:34 31.5 °F /  -0.3 °C 30.4 °F /  -0.9 °C 30.7in /  1038.9hPa East 0.9mph /  1.4km/h 1mph /  1.6km/h 96% 0in /  0.0mm 0 W/m2
20:39 31.5 °F /  -0.3 °C 30.4 °F /  -0.9 °C 30.7in /  1038.9hPa Calm   1mph /  1.6km/h 96% 0in /  0.0mm 0 W/m2
20:44 31.8 °F /  -0.1 °C 30.7 °F /  -0.7 °C 30.7in /  1038.6hPa Calm   2mph /  3.2km/h 96% 0in /  0.0mm 0 W/m2
20:49 32 °F /  0 °C 30.9 °F /  -0.6 °C 30.7in /  1038.6hPa Calm   1mph /  1.6km/h 96% 0in /  0.0mm 0 W/m2
20:54 32.2 °F /  0.1 °C 31.1 °F /  -0.5 °C 30.7in /  1038.6hPa Calm   2mph /  3.2km/h 96% 0in /  0.0mm 0 W/m2
20:59 32.2 °F /  0.1 °C 31.1 °F /  -0.5 °C 30.7in /  1038.6hPa Calm     96% 0in /  0.0mm 0 W/m2
21:04 32.4 °F /  0.2 °C 31.3 °F /  -0.4 °C 30.7in /  1038.6hPa Calm     96% 0in /  0.0mm 0 W/m2
21:09 32.4 °F /  0.2 °C 31.3 °F /  -0.4 °C 30.7in /  1038.6hPa Calm     96% 0in /  0.0mm 0 W/m2
21:14 32.4 °F /  0.2 °C 31.3 °F /  -0.4 °C 30.7in /  1038.6hPa Calm     96% 0in /  0.0mm 0 W/m2
21:19 32.2 °F /  0.1 °C 31.1 °F /  -0.5 °C 30.7in /  1038.9hPa Calm     96% 0in /  0.0mm 0 W/m2
21:24 32.2 °F /  0.1 °C 31.1 °F /  -0.5 °C 30.7in /  1038.9hPa Calm     96% 0in /  0.0mm 0 W/m2
21:29 31.8 °F /  -0.1 °C 30.7 °F /  -0.7 °C 30.7in /  1038.9hPa Calm     96% 0in /  0.0mm 0 W/m2
21:34 31.8 °F /  -0.1 °C 30.7 °F /  -0.7 °C 30.7in /  1038.6hPa Calm     96% 0in /  0.0mm 0 W/m2
21:39 31.6 °F /  -0.2 °C 30.6 °F /  -0.8 °C 30.7in /  1038.9hPa Calm     96% 0in /  0.0mm 0 W/m2
21:44 31.6 °F /  -0.2 °C 30.6 °F /  -0.8 °C 30.7in /  1038.9hPa Calm     96% 0in /  0.0mm 0 W/m2
21:49 31.6 °F /  -0.2 °C 30.6 °F /  -0.8 °C 30.7in /  1038.9hPa Calm     96% 0in /  0.0mm 0 W/m2
21:54 31.6 °F /  -0.2 °C 30.6 °F /  -0.8 °C 30.7in /  1038.9hPa Calm     96% 0in /  0.0mm 0 W/m2
22:00 31.6 °F /  -0.2 °C 30.6 °F /  -0.8 °C 30.7in /  1038.9hPa Calm     96% 0in /  0.0mm 0 W/m2
22:05 31.5 °F /  -0.3 °C 30.4 °F /  -0.9 °C 30.7in /  1038.9hPa Calm     96% 0in /  0.0mm 0 W/m2
22:10 31.5 °F /  -0.3 °C 30.4 °F /  -0.9 °C 30.7in /  1038.9hPa Calm     96% 0in /  0.0mm 0 W/m2
22:15 31.5 °F /  -0.3 °C 30.4 °F /  -0.9 °C 30.7in /  1038.9hPa SSW 0.9mph /  1.4km/h 1mph /  1.6km/h 96% 0in /  0.0mm 0 W/m2
22:20 31.5 °F /  -0.3 °C 30.4 °F /  -0.9 °C 30.7in /  1038.9hPa Calm     96% 0in /  0.0mm 0 W/m2
22:25 31.3 °F /  -0.4 °C 30.2 °F /  -1 °C 30.7in /  1038.9hPa Calm     96% 0in /  0.0mm 0 W/m2
22:30 31.3 °F /  -0.4 °C 30.2 °F /  -1 °C 30.7in /  1038.9hPa Calm     96% 0in /  0.0mm 0 W/m2
22:35 31.1 °F /  -0.5 °C 30 °F /  -1.1 °C 30.7in /  1038.9hPa Calm     96% 0in /  0.0mm 0 W/m2
22:40 30.9 °F /  -0.6 °C 29.8 °F /  -1.2 °C 30.7in /  1038.6hPa Calm     96% 0in /  0.0mm 0 W/m2
22:45 30.9 °F /  -0.6 °C 29.8 °F /  -1.2 °C 30.7in /  1038.9hPa Calm     96% 0in /  0.0mm 0 W/m2
22:50 30.7 °F /  -0.7 °C 29.7 °F /  -1.3 °C 30.7in /  1038.9hPa Calm     96% 0in /  0.0mm 0 W/m2
22:55 30.7 °F /  -0.7 °C 29.7 °F /  -1.3 °C 30.7in /  1038.6hPa Calm     96% 0in /  0.0mm 0 W/m2
23:00 30.6 °F /  -0.8 °C 29.5 °F /  -1.4 °C 30.7in /  1038.6hPa Calm     96% 0in /  0.0mm 0 W/m2
23:05 30.6 °F /  -0.8 °C 29.5 °F /  -1.4 °C 30.7in /  1038.6hPa Calm     96% 0in /  0.0mm 0 W/m2
23:10 30.6 °F /  -0.8 °C 29.5 °F /  -1.4 °C 30.7in /  1038.6hPa Calm     96% 0in /  0.0mm 0 W/m2
23:15 30.4 °F /  -0.9 °C 29.3 °F /  -1.5 °C 30.7in /  1038.6hPa Calm     96% 0in /  0.0mm 0 W/m2
23:20 30.6 °F /  -0.8 °C 29.5 °F /  -1.4 °C 30.7in /  1038.6hPa Calm     96% 0in /  0.0mm 0 W/m2
23:25 30.4 °F /  -0.9 °C 29.3 °F /  -1.5 °C 30.7in /  1038.3hPa Calm     96% 0in /  0.0mm 0 W/m2
23:30 30.6 °F /  -0.8 °C 29.5 °F /  -1.4 °C 30.7in /  1038.3hPa Calm     96% 0in /  0.0mm 0 W/m2
23:35 30.4 °F /  -0.9 °C 29.3 °F /  -1.5 °C 30.7in /  1038.3hPa Calm     96% 0in /  0.0mm 0 W/m2
23:40 30.4 °F /  -0.9 °C 29.3 °F /  -1.5 °C 30.7in /  1038.3hPa Calm     96% 0in /  0.0mm 0 W/m2
23:45 30.4 °F /  -0.9 °C 29.3 °F /  -1.5 °C 30.7in /  1038.3hPa Calm     96% 0in /  0.0mm 0 W/m2
23:50 30.2 °F /  -1 °C 29.1 °F /  -1.6 °C 30.7in /  1038.6hPa Calm     96% 0in /  0.0mm 0 W/m2
23:55 30 °F /  -1.1 °C 28.9 °F /  -1.7 °C 30.7in /  1038.6hPa Calm     96% 0in /  0.0mm 0 W/m2
Juneau County Weather
Compliments of Weather Underground - 4 mb